createdAt,value
2018-10-09T00:00:55.779Z,0.00
2018-10-09T00:01:55.739Z,0.00
2018-10-09T00:02:55.690Z,4.00
2018-10-09T00:03:55.675Z,4.00
2018-10-09T00:04:55.662Z,4.00
2018-10-09T00:05:55.650Z,4.00
2018-10-09T00:06:55.642Z,4.00
2018-10-09T00:07:56.002Z,4.00
2018-10-09T00:08:55.618Z,4.00
2018-10-09T00:09:55.608Z,4.00
2018-10-09T00:10:55.604Z,4.00
2018-10-09T00:11:55.586Z,4.00
2018-10-09T00:12:55.577Z,4.00
2018-10-09T00:13:55.610Z,4.00
2018-10-09T00:14:55.553Z,4.00
2018-10-09T00:15:55.547Z,4.00
2018-10-09T00:16:55.533Z,4.00
2018-10-09T00:17:55.520Z,4.00
2018-10-09T00:18:55.509Z,4.00
2018-10-09T00:19:55.791Z,4.00
2018-10-09T00:20:55.486Z,4.00
2018-10-09T00:21:55.476Z,4.00
2018-10-09T00:22:55.468Z,4.00
2018-10-09T00:23:55.457Z,4.00
2018-10-09T00:24:55.446Z,4.00
2018-10-09T00:25:55.503Z,4.00
2018-10-09T00:26:55.428Z,4.00
2018-10-09T00:27:55.411Z,4.00
2018-10-09T00:28:55.404Z,4.00
2018-10-09T00:29:55.392Z,4.00
2018-10-09T00:30:55.380Z,4.00
2018-10-09T00:31:55.506Z,4.00
2018-10-09T00:32:55.362Z,4.00
2018-10-09T00:33:55.350Z,4.00
2018-10-09T00:34:55.339Z,4.00
2018-10-09T00:35:55.331Z,4.00
2018-10-09T00:36:55.319Z,4.00
2018-10-09T00:37:55.632Z,4.00
2018-10-09T00:38:55.300Z,4.00
2018-10-09T00:39:55.283Z,4.00
2018-10-09T00:40:55.274Z,4.00
2018-10-09T00:41:55.266Z,4.00
2018-10-09T00:42:55.254Z,4.00
2018-10-09T00:43:55.531Z,4.00
2018-10-09T00:44:55.235Z,4.00
2018-10-09T00:45:55.221Z,4.00
2018-10-09T00:46:55.210Z,4.00
2018-10-09T00:47:55.201Z,4.00
2018-10-09T00:48:55.192Z,0.00
2018-10-09T00:49:55.201Z,0.00
2018-10-09T00:50:55.173Z,0.00
2018-10-09T00:51:55.157Z,0.00
2018-10-09T00:52:55.144Z,0.00
2018-10-09T00:53:55.136Z,4.00
2018-10-09T00:54:55.127Z,4.00
2018-10-09T00:55:55.449Z,4.00
2018-10-09T00:56:55.105Z,4.00
2018-10-09T00:57:55.092Z,4.00
2018-10-09T00:58:55.080Z,4.00
2018-10-09T00:59:55.072Z,4.00
2018-10-09T01:00:55.067Z,4.00
2018-10-09T01:01:55.509Z,4.00
2018-10-09T01:02:55.044Z,4.00
2018-10-09T01:03:55.032Z,4.00
2018-10-09T01:04:55.015Z,4.00
2018-10-09T01:05:55.009Z,4.00
2018-10-09T01:06:54.996Z,4.00
2018-10-09T01:07:55.010Z,4.00
2018-10-09T01:08:55.045Z,4.00
2018-10-09T01:09:54.962Z,4.00
2018-10-09T01:10:54.955Z,4.00
2018-10-09T01:11:54.953Z,4.00
2018-10-09T01:12:54.940Z,4.00
2018-10-09T01:13:55.257Z,4.00
2018-10-09T01:14:54.910Z,4.00
2018-10-09T01:15:54.898Z,4.00
2018-10-09T01:16:54.890Z,4.00
2018-10-09T01:17:54.886Z,4.00
2018-10-09T01:18:54.873Z,4.00
2018-10-09T01:19:55.474Z,4.00
2018-10-09T01:20:54.845Z,4.00
2018-10-09T01:21:54.833Z,0.00
2018-10-09T01:22:54.827Z,0.00
2018-10-09T01:23:54.813Z,0.00
2018-10-09T01:24:54.802Z,0.00
2018-10-09T01:25:54.846Z,0.00
2018-10-09T01:26:54.781Z,0.00
2018-10-09T01:27:54.769Z,4.00
2018-10-09T01:28:54.762Z,4.00
2018-10-09T01:29:54.752Z,4.00
2018-10-09T01:30:54.741Z,4.00
2018-10-09T01:31:54.745Z,4.00
2018-10-09T01:32:54.720Z,4.00
2018-10-09T01:33:54.708Z,4.00
2018-10-09T01:34:54.697Z,4.00
2018-10-09T01:35:54.684Z,4.00
2018-10-09T01:36:54.678Z,4.00
2018-10-09T01:37:54.933Z,4.00
2018-10-09T01:38:54.655Z,4.00
2018-10-09T01:39:54.640Z,4.00
2018-10-09T01:40:54.631Z,4.00
2018-10-09T01:41:54.619Z,4.00
2018-10-09T01:42:54.607Z,4.00
2018-10-09T01:43:54.615Z,4.00
2018-10-09T01:44:54.586Z,4.00
2018-10-09T01:45:54.987Z,4.00
2018-10-09T01:46:54.566Z,0.00
2018-10-09T01:47:54.554Z,0.00
2018-10-09T01:48:54.545Z,0.00
2018-10-09T01:49:54.563Z,0.00
2018-10-09T01:50:54.521Z,0.00
2018-10-09T01:51:54.515Z,0.00
2018-10-09T01:52:54.505Z,0.00
2018-10-09T01:53:54.494Z,0.00
2018-10-09T01:54:54.491Z,0.00
2018-10-09T01:55:54.498Z,4.00
2018-10-09T01:56:54.457Z,4.00
2018-10-09T01:57:54.446Z,4.00
2018-10-09T01:58:54.437Z,4.00
2018-10-09T01:59:54.425Z,4.00
2018-10-09T02:00:54.412Z,4.00
2018-10-09T02:01:54.511Z,4.00
2018-10-09T02:02:54.393Z,4.00
2018-10-09T02:03:54.383Z,4.00
2018-10-09T02:04:54.368Z,4.00
2018-10-09T02:05:54.360Z,4.00
2018-10-09T02:06:54.347Z,4.00
2018-10-09T02:07:54.364Z,4.00
2018-10-09T02:08:54.330Z,4.00
2018-10-09T02:09:54.317Z,4.00
2018-10-09T02:10:54.307Z,4.00
2018-10-09T02:11:54.298Z,0.00
2018-10-09T02:12:54.288Z,0.00
2018-10-09T02:13:54.509Z,0.00
2018-10-09T02:14:54.265Z,4.00
2018-10-09T02:15:54.251Z,4.00
2018-10-09T02:16:54.247Z,4.00
2018-10-09T02:17:54.231Z,4.00
2018-10-09T02:18:54.218Z,4.00
2018-10-09T02:19:54.243Z,4.00
2018-10-09T02:20:54.200Z,4.00
2018-10-09T02:21:54.186Z,4.00
2018-10-09T02:22:54.175Z,4.00
2018-10-09T02:23:54.170Z,4.00
2018-10-09T02:24:54.149Z,4.00
2018-10-09T02:25:54.161Z,4.00
2018-10-09T02:26:54.133Z,4.00
2018-10-09T02:27:54.119Z,4.00
2018-10-09T02:28:54.110Z,0.00
2018-10-09T02:29:54.096Z,0.00
2018-10-09T02:30:54.089Z,0.00
2018-10-09T02:31:54.505Z,0.00
2018-10-09T02:32:54.065Z,0.00
2018-10-09T02:33:54.056Z,0.00
2018-10-09T02:34:54.050Z,4.00
2018-10-09T02:35:54.034Z,4.00
2018-10-09T02:36:54.024Z,4.00
2018-10-09T02:37:54.029Z,4.00
2018-10-09T02:38:54.009Z,4.00
2018-10-09T02:39:53.992Z,4.00
2018-10-09T02:40:53.983Z,4.00
2018-10-09T02:41:53.968Z,4.00
2018-10-09T02:42:53.964Z,4.00
2018-10-09T02:43:54.233Z,4.00
2018-10-09T02:44:53.935Z,0.00
2018-10-09T02:45:53.931Z,0.00
2018-10-09T02:46:53.916Z,0.00
2018-10-09T02:47:53.908Z,0.00
2018-10-09T02:48:53.898Z,0.00
2018-10-09T02:49:54.227Z,4.00
2018-10-09T02:50:53.874Z,4.00
2018-10-09T02:51:53.863Z,4.00
2018-10-09T02:52:53.849Z,4.00
2018-10-09T02:53:53.843Z,4.00
2018-10-09T02:54:53.830Z,4.00
2018-10-09T02:55:54.157Z,4.00
2018-10-09T02:56:53.812Z,4.00
2018-10-09T02:57:53.811Z,4.00
2018-10-09T02:58:53.790Z,4.00
2018-10-09T02:59:53.787Z,4.00
2018-10-09T03:00:53.774Z,4.00
2018-10-09T03:01:53.782Z,4.00
2018-10-09T03:02:53.744Z,4.00
2018-10-09T03:03:53.733Z,4.00
2018-10-09T03:04:53.722Z,4.00
2018-10-09T03:05:53.713Z,4.00
2018-10-09T03:06:53.705Z,4.00
2018-10-09T03:07:53.976Z,4.00
2018-10-09T03:08:53.681Z,4.00
2018-10-09T03:09:53.670Z,4.00
2018-10-09T03:10:53.660Z,4.00
2018-10-09T03:11:53.649Z,4.00
2018-10-09T03:12:53.641Z,4.00
2018-10-09T03:13:53.635Z,4.00
2018-10-09T03:14:53.615Z,4.00
2018-10-09T03:15:53.611Z,4.00
2018-10-09T03:16:53.591Z,4.00
2018-10-09T03:17:53.583Z,0.00
2018-10-09T03:18:53.571Z,4.00
2018-10-09T03:19:53.870Z,4.00
2018-10-09T03:20:53.552Z,4.00
2018-10-09T03:21:53.538Z,4.00
2018-10-09T03:22:53.526Z,4.00
2018-10-09T03:23:53.518Z,4.00
2018-10-09T03:24:53.507Z,4.00
2018-10-09T03:25:54.012Z,4.00
2018-10-09T03:26:53.486Z,4.00
2018-10-09T03:27:53.473Z,4.00
2018-10-09T03:28:53.465Z,4.00
2018-10-09T03:29:53.454Z,4.00
2018-10-09T03:30:53.442Z,4.00
2018-10-09T03:31:53.507Z,4.00
2018-10-09T03:32:53.417Z,4.00
2018-10-09T03:33:53.408Z,4.00
2018-10-09T03:34:53.401Z,4.00
2018-10-09T03:35:53.384Z,4.00
2018-10-09T03:36:53.378Z,4.00
2018-10-09T03:37:53.724Z,4.00
2018-10-09T03:38:53.357Z,4.00
2018-10-09T03:39:53.340Z,4.00
2018-10-09T03:40:53.334Z,4.00
2018-10-09T03:41:53.319Z,4.00
2018-10-09T03:42:53.312Z,4.00
2018-10-09T03:43:53.341Z,4.00
2018-10-09T03:44:53.291Z,4.00
2018-10-09T03:45:53.278Z,4.00
2018-10-09T03:46:53.273Z,4.00
2018-10-09T03:47:53.254Z,4.00
2018-10-09T03:48:53.243Z,4.00
2018-10-09T03:49:53.513Z,4.00
2018-10-09T03:50:53.222Z,4.00
2018-10-09T03:51:53.214Z,4.00
2018-10-09T03:52:53.202Z,4.00
2018-10-09T03:53:53.189Z,4.00
2018-10-09T03:54:53.181Z,4.00
2018-10-09T03:55:53.513Z,4.00
2018-10-09T03:56:53.157Z,4.00
2018-10-09T03:57:53.153Z,4.00
2018-10-09T03:58:53.141Z,4.00
2018-10-09T03:59:53.126Z,4.00
2018-10-09T04:00:53.116Z,4.00
2018-10-09T04:01:53.125Z,4.00
2018-10-09T04:02:53.097Z,4.00
2018-10-09T04:03:53.082Z,4.00
2018-10-09T04:04:53.072Z,4.00
2018-10-09T04:05:53.060Z,4.00
2018-10-09T04:06:53.048Z,4.00
2018-10-09T04:07:53.062Z,4.00
2018-10-09T04:08:53.057Z,4.00
2018-10-09T04:09:53.015Z,4.00
2018-10-09T04:10:53.007Z,4.00
2018-10-09T04:11:52.998Z,4.00
2018-10-09T04:12:52.985Z,4.00
2018-10-09T04:13:52.992Z,4.00
2018-10-09T04:14:52.963Z,4.00
2018-10-09T04:15:52.953Z,4.00
2018-10-09T04:16:52.943Z,4.00
2018-10-09T04:17:52.934Z,4.00
2018-10-09T04:18:52.918Z,4.00
2018-10-09T04:19:53.012Z,0.00
2018-10-09T04:20:52.898Z,0.00
2018-10-09T04:21:52.891Z,4.00
2018-10-09T04:22:52.878Z,4.00
2018-10-09T04:23:52.870Z,4.00
2018-10-09T04:24:52.853Z,4.00
2018-10-09T04:25:52.865Z,4.00
2018-10-09T04:26:52.836Z,4.00
2018-10-09T04:27:52.826Z,4.00
2018-10-09T04:28:52.814Z,4.00
2018-10-09T04:29:52.803Z,4.00
2018-10-09T04:30:52.789Z,4.00
2018-10-09T04:31:53.103Z,4.00
2018-10-09T04:32:52.771Z,4.00
2018-10-09T04:33:52.756Z,4.00
2018-10-09T04:34:52.747Z,4.00
2018-10-09T04:35:52.732Z,4.00
2018-10-09T04:36:52.724Z,4.00
2018-10-09T04:37:52.739Z,4.00
2018-10-09T04:38:52.700Z,4.00
2018-10-09T04:39:52.698Z,4.00
2018-10-09T04:40:52.680Z,4.00
2018-10-09T04:41:52.668Z,4.00
2018-10-09T04:42:52.660Z,4.00
2018-10-09T04:43:53.011Z,4.00
2018-10-09T04:44:52.641Z,4.00
2018-10-09T04:45:52.629Z,4.00
2018-10-09T04:46:52.619Z,4.00
2018-10-09T04:47:52.610Z,4.00
2018-10-09T04:48:52.594Z,4.00
2018-10-09T04:49:52.913Z,4.00
2018-10-09T04:50:52.573Z,0.00
2018-10-09T04:51:52.563Z,0.00
2018-10-09T04:52:52.570Z,0.00
2018-10-09T04:53:52.541Z,0.00
2018-10-09T04:54:52.530Z,0.00
2018-10-09T04:55:52.533Z,0.00
2018-10-09T04:56:52.506Z,0.00
2018-10-09T04:57:52.500Z,0.00
2018-10-09T04:58:52.487Z,0.00
2018-10-09T04:59:52.473Z,0.00
2018-10-09T05:00:52.470Z,4.00
2018-10-09T05:01:52.470Z,4.00
2018-10-09T05:02:52.441Z,4.00
2018-10-09T05:03:52.433Z,4.00
2018-10-09T05:04:52.422Z,4.00
2018-10-09T05:05:52.414Z,4.00
2018-10-09T05:06:52.399Z,4.00
2018-10-09T05:07:53.016Z,4.00
2018-10-09T05:08:52.377Z,4.00
2018-10-09T05:09:52.364Z,104.00
2018-10-09T05:10:52.358Z,192.00
2018-10-09T05:11:52.344Z,232.00
2018-10-09T05:12:52.335Z,244.00
2018-10-09T05:13:52.655Z,240.00
2018-10-09T05:14:52.314Z,240.00
2018-10-09T05:15:52.304Z,236.00
2018-10-09T05:16:52.287Z,232.00
2018-10-09T05:17:52.375Z,228.00
2018-10-09T05:18:52.276Z,228.00
2018-10-09T05:19:52.512Z,228.00
2018-10-09T05:20:52.246Z,228.00
2018-10-09T05:21:52.239Z,224.00
2018-10-09T05:22:52.223Z,228.00
2018-10-09T05:23:52.215Z,228.00
2018-10-09T05:24:52.205Z,228.00
2018-10-09T05:25:52.208Z,228.00
2018-10-09T05:26:52.182Z,228.00
2018-10-09T05:27:52.175Z,228.00
2018-10-09T05:28:52.163Z,232.00
2018-10-09T05:29:52.154Z,232.00
2018-10-09T05:30:52.144Z,232.00
2018-10-09T05:31:52.453Z,236.00
2018-10-09T05:32:52.117Z,236.00
2018-10-09T05:33:52.105Z,236.00
2018-10-09T05:34:52.094Z,240.00
2018-10-09T05:35:52.087Z,240.00
2018-10-09T05:36:52.072Z,244.00
2018-10-09T05:37:52.413Z,244.00
2018-10-09T05:38:52.049Z,248.00
2018-10-09T05:39:52.042Z,248.00
2018-10-09T05:40:52.030Z,252.00
2018-10-09T05:41:52.016Z,252.00
2018-10-09T05:42:52.009Z,256.00
2018-10-09T05:43:52.316Z,260.00
2018-10-09T05:44:51.984Z,260.00
2018-10-09T05:45:51.976Z,260.00
2018-10-09T05:46:51.966Z,268.00
2018-10-09T05:47:51.952Z,272.00
2018-10-09T05:48:51.940Z,272.00
2018-10-09T05:49:52.013Z,280.00
2018-10-09T05:50:51.920Z,284.00
2018-10-09T06:49:19.656Z,1416.00
2018-10-09T06:50:19.626Z,1436.00
2018-10-09T06:51:19.614Z,1452.00
2018-10-09T06:52:19.609Z,1448.00
2018-10-09T06:53:19.626Z,1452.00
2018-10-09T06:54:19.631Z,1456.00
2018-10-09T06:55:20.270Z,1452.00
2018-10-09T06:56:19.564Z,1448.00
2018-10-09T06:57:19.550Z,1448.00
2018-10-09T06:58:19.541Z,1444.00
2018-10-09T06:59:19.528Z,1452.00
2018-10-09T07:00:19.598Z,1460.00
2018-10-09T07:01:19.558Z,1480.00
2018-10-09T07:02:19.502Z,1512.00
2018-10-09T07:03:19.493Z,1552.00
2018-10-09T07:04:19.481Z,1596.00
2018-10-09T07:05:19.468Z,1648.00
2018-10-09T07:06:19.460Z,1704.00
2018-10-09T07:07:19.873Z,1764.00
2018-10-09T07:08:19.441Z,1824.00
2018-10-09T07:09:20.053Z,1864.00
2018-10-09T07:10:19.415Z,1888.00
2018-10-09T07:11:19.532Z,1940.00
2018-10-09T07:12:19.396Z,2000.00
2018-10-09T07:13:19.400Z,2056.00
2018-10-09T07:14:19.376Z,2100.00
2018-10-09T07:15:19.364Z,2132.00
2018-10-09T07:16:19.367Z,2156.00
2018-10-09T07:17:19.347Z,2176.00
2018-10-09T07:18:19.331Z,2184.00
2018-10-09T07:19:19.368Z,2176.00
2018-10-09T07:20:19.315Z,2148.00
2018-10-09T07:21:19.309Z,2120.00
2018-10-09T07:22:19.292Z,2084.00
2018-10-09T07:23:19.282Z,2036.00
2018-10-09T07:24:19.273Z,1984.00
2018-10-09T07:25:19.271Z,1940.00
2018-10-09T07:26:19.245Z,1900.00
2018-10-09T07:27:19.242Z,1860.00
2018-10-09T07:28:19.229Z,1828.00
2018-10-09T07:29:19.213Z,1796.00
2018-10-09T07:30:19.209Z,1764.00
2018-10-09T07:31:19.213Z,1732.00
2018-10-09T07:32:19.188Z,1712.00
2018-10-09T07:33:19.181Z,1704.00
2018-10-09T07:34:19.167Z,1708.00
2018-10-09T07:35:19.153Z,1708.00
2018-10-09T07:36:19.145Z,1692.00
2018-10-09T07:37:19.374Z,1692.00
2018-10-09T07:38:19.126Z,1696.00
2018-10-09T07:39:19.116Z,1708.00
2018-10-09T07:40:19.104Z,1724.00
2018-10-09T07:41:19.094Z,1740.00
2018-10-09T07:42:19.079Z,1772.00
2018-10-09T07:43:19.105Z,1768.00
2018-10-09T07:44:19.112Z,1760.00
2018-10-09T07:45:19.047Z,1780.00
2018-10-09T07:46:19.035Z,1804.00
2018-10-09T07:47:19.028Z,1812.00
2018-10-09T07:48:19.015Z,1844.00
2018-10-09T07:49:19.301Z,1884.00
2018-10-09T07:50:19.003Z,1928.00
2018-10-09T07:51:18.983Z,1684.00
2018-10-09T07:52:18.971Z,1696.00
2018-10-09T07:53:18.968Z,1700.00
2018-10-09T07:54:18.970Z,1708.00
2018-10-09T07:55:19.211Z,1688.00
2018-10-09T07:56:18.933Z,1676.00
2018-10-09T07:57:18.924Z,1688.00
2018-10-09T07:58:18.910Z,1712.00
2018-10-09T07:59:18.901Z,1740.00
2018-10-09T08:00:18.896Z,1748.00
2018-10-09T08:01:19.218Z,1720.00
2018-10-09T08:02:18.878Z,1724.00
2018-10-09T08:03:18.857Z,1720.00
2018-10-09T08:04:18.845Z,1724.00
2018-10-09T08:05:18.840Z,1748.00
2018-10-09T08:06:18.825Z,1800.00
2018-10-09T08:07:18.866Z,1868.00
2018-10-09T08:08:18.807Z,1920.00
2018-10-09T08:09:18.798Z,1960.00
2018-10-09T08:10:18.850Z,2008.00
2018-10-09T08:11:18.781Z,2064.00
2018-10-09T08:12:18.764Z,2112.00
2018-10-09T08:13:18.872Z,2196.00
2018-10-09T08:14:18.742Z,2276.00
2018-10-09T08:15:18.728Z,2388.00
2018-10-09T08:16:18.795Z,2516.00
2018-10-09T08:17:18.708Z,2488.00
2018-10-09T08:18:18.702Z,2384.00
2018-10-09T08:19:18.708Z,2300.00
2018-10-09T08:20:18.680Z,2268.00
2018-10-09T08:21:18.667Z,2264.00
2018-10-09T08:22:18.708Z,2252.00
2018-10-09T08:23:18.648Z,2228.00
2018-10-09T08:24:18.635Z,2216.00
2018-10-09T16:41:29.303Z,32.00
2018-10-09T16:42:29.207Z,120.00
2018-10-09T16:43:29.159Z,120.00
2018-10-09T16:44:29.103Z,136.00
2018-10-09T16:45:29.047Z,136.00
2018-10-09T16:46:28.987Z,112.00
2018-10-09T16:47:29.468Z,124.00
2018-10-09T16:48:28.857Z,108.00
2018-10-09T16:49:28.794Z,124.00
2018-10-09T16:50:28.728Z,120.00
2018-10-09T16:51:28.662Z,120.00
2018-10-09T16:52:28.597Z,112.00
2018-10-09T16:53:28.732Z,120.00
2018-10-09T16:54:28.878Z,0.00
2018-10-09T16:55:28.387Z,68.00
2018-10-09T16:56:28.325Z,72.00
2018-10-09T16:57:28.246Z,84.00
2018-10-09T16:58:28.197Z,148.00
2018-10-09T16:59:29.564Z,456.00
2018-10-09T17:02:25.877Z,96.00
2018-10-09T17:03:04.000Z,96.00
2018-10-09T17:04:05.420Z,96.00
2018-10-09T17:05:06.987Z,96.00
2018-10-09T17:06:03.881Z,112.00
2018-10-09T17:07:18.857Z,504.00
2018-10-09T17:08:04.125Z,36.00
